createdAt,value
2023-04-16T00:01:50.963Z,3.22
2023-04-16T00:04:17.993Z,2.75
2023-04-16T00:06:44.845Z,2.33
2023-04-16T00:09:11.731Z,2.00
2023-04-16T00:11:38.590Z,2.05
2023-04-16T00:14:05.874Z,1.65
2023-04-16T00:16:32.820Z,1.95
2023-04-16T00:18:59.680Z,2.10
2023-04-16T00:21:26.848Z,2.50
2023-04-16T00:23:53.692Z,2.20
2023-04-16T00:26:20.711Z,2.38
2023-04-16T00:28:47.815Z,2.25
2023-04-16T00:31:14.796Z,1.80
2023-04-16T00:33:41.703Z,1.90
2023-04-16T00:36:09.430Z,1.95
2023-04-16T00:38:37.279Z,1.60
2023-04-16T00:41:04.070Z,1.58
2023-04-16T00:43:31.892Z,1.30
2023-04-16T00:45:59.063Z,2.90
2023-04-16T00:48:28.331Z,2.20
2023-04-16T00:50:55.732Z,2.17
2023-04-16T00:53:22.547Z,1.88
2023-04-16T00:55:49.443Z,2.03
2023-04-16T00:58:16.749Z,2.35
2023-04-16T01:00:43.610Z,2.33
2023-04-16T01:03:10.836Z,3.13
2023-04-16T01:05:37.810Z,3.10
2023-04-16T01:08:04.835Z,3.42
2023-04-16T01:10:31.765Z,4.72
2023-04-16T01:12:58.543Z,3.20
2023-04-16T01:15:25.580Z,2.25
2023-04-16T01:17:52.410Z,3.25
2023-04-16T01:20:19.268Z,3.25
2023-04-16T01:22:46.127Z,2.10
2023-04-16T01:25:16.475Z,1.77
2023-04-16T01:27:43.272Z,1.93
2023-04-16T01:30:10.306Z,2.63
2023-04-16T01:32:58.056Z,1.70
2023-04-16T01:35:25.178Z,1.55
2023-04-16T01:37:52.057Z,1.63
2023-04-16T01:40:19.093Z,1.48
2023-04-16T01:42:45.907Z,2.72
2023-04-16T01:45:12.828Z,2.15
2023-04-16T01:47:40.018Z,1.58
2023-04-16T01:50:07.398Z,1.42
2023-04-16T01:52:34.192Z,1.17
2023-04-16T01:55:00.998Z,1.48
2023-04-16T01:57:27.780Z,1.83
2023-04-16T01:59:54.683Z,1.23
2023-04-16T02:02:25.707Z,1.05
2023-04-16T02:04:54.938Z,1.35
2023-04-16T02:07:21.858Z,1.23
2023-04-16T02:09:50.934Z,1.58
2023-04-16T02:12:17.953Z,1.23
2023-04-16T02:14:44.760Z,1.80
2023-04-16T02:17:13.705Z,1.55
2023-04-16T02:19:41.813Z,1.50
2023-04-16T02:22:09.917Z,1.02
2023-04-16T02:24:36.739Z,2.10
2023-04-16T02:27:07.645Z,2.15
2023-04-16T02:29:34.488Z,1.17
2023-04-16T02:32:09.136Z,1.13
2023-04-16T02:34:36.592Z,1.13
2023-04-16T02:37:04.212Z,1.52
2023-04-16T02:39:31.180Z,2.50
2023-04-16T02:41:58.117Z,1.42
2023-04-16T02:44:24.910Z,1.27
2023-04-16T02:46:51.724Z,1.20
2023-04-16T02:49:19.990Z,1.05
2023-04-16T02:51:48.383Z,2.33
2023-04-16T02:54:15.261Z,2.95
2023-04-16T02:56:42.002Z,2.53
2023-04-16T02:59:09.027Z,2.88
2023-04-16T03:01:36.046Z,2.42
2023-04-16T03:04:03.481Z,3.10
2023-04-16T03:06:30.367Z,2.58
2023-04-16T03:08:57.431Z,2.08
2023-04-16T03:11:24.303Z,1.40
2023-04-16T03:13:51.079Z,1.70
2023-04-16T03:16:17.951Z,1.83
2023-04-16T03:18:44.828Z,1.58
2023-04-16T03:21:11.765Z,2.45
2023-04-16T03:23:38.529Z,1.80
2023-04-16T03:26:05.508Z,1.88
2023-04-16T03:28:32.560Z,1.60
2023-04-16T03:30:59.479Z,1.77
2023-04-16T03:33:26.420Z,1.40
2023-04-16T03:35:57.286Z,1.50
2023-04-16T03:38:26.827Z,1.85
2023-04-16T03:40:56.286Z,1.70
2023-04-16T03:43:23.172Z,1.60
2023-04-16T03:45:50.299Z,2.30
2023-04-16T03:48:19.494Z,2.13
2023-04-16T03:50:47.697Z,1.90
2023-04-16T03:53:16.434Z,1.88
2023-04-16T03:55:43.169Z,1.70
2023-04-16T03:58:10.461Z,1.92
2023-04-16T04:00:37.265Z,2.03
2023-04-16T04:03:13.488Z,2.22
2023-04-16T04:05:41.420Z,1.35
2023-04-16T04:08:10.967Z,1.48
2023-04-16T04:10:38.685Z,1.80
2023-04-16T04:13:07.378Z,2.03
2023-04-16T04:15:35.075Z,1.77
2023-04-16T04:18:01.917Z,1.90
2023-04-16T04:20:28.766Z,1.77
2023-04-16T04:22:55.886Z,1.75
2023-04-16T04:25:25.346Z,2.60
2023-04-16T04:27:52.439Z,2.20
2023-04-16T04:30:19.329Z,1.92
2023-04-16T04:32:46.306Z,1.45
2023-04-16T04:35:13.758Z,1.13
2023-04-16T04:37:41.870Z,1.60
2023-04-16T04:40:18.621Z,2.08
2023-04-16T04:42:46.260Z,2.20
2023-04-16T04:45:13.247Z,2.10
2023-04-16T04:47:41.379Z,1.85
2023-04-16T04:50:08.498Z,1.60
2023-04-16T04:52:35.468Z,2.20
2023-04-16T04:55:02.757Z,3.35
2023-04-16T04:57:30.602Z,2.47
2023-04-16T04:59:57.427Z,2.35
2023-04-16T05:02:24.379Z,2.78
2023-04-16T05:04:51.255Z,2.30
2023-04-16T05:07:18.058Z,3.58
2023-04-16T05:09:44.804Z,5.07
2023-04-16T05:12:11.615Z,16.08
2023-04-16T05:14:38.476Z,22.17
2023-04-16T05:17:05.457Z,17.23
2023-04-16T05:19:32.290Z,9.50
2023-04-16T05:21:59.493Z,10.45
2023-04-16T05:24:26.329Z,8.00
2023-04-16T05:26:53.103Z,4.80
2023-04-16T05:29:19.992Z,4.72
2023-04-16T05:31:46.844Z,5.45
2023-04-16T05:34:13.704Z,5.30
2023-04-16T05:36:40.633Z,6.85
2023-04-16T05:39:08.142Z,7.18
2023-04-16T05:41:35.068Z,6.93
2023-04-16T05:44:01.852Z,10.32
2023-04-16T05:46:28.697Z,9.60
2023-04-16T05:48:55.470Z,9.82
2023-04-16T05:51:24.866Z,7.18
2023-04-16T05:53:51.728Z,6.03
2023-04-16T05:56:18.635Z,5.82
2023-04-16T05:58:45.480Z,7.50
2023-04-16T06:01:12.435Z,4.93
2023-04-16T06:03:39.319Z,4.03
2023-04-16T06:06:06.658Z,4.32
2023-04-16T06:08:33.516Z,2.50
2023-04-16T06:11:00.338Z,4.45
2023-04-16T06:13:27.173Z,2.45
2023-04-16T06:15:54.052Z,2.78
2023-04-16T06:18:20.932Z,2.75
2023-04-16T06:20:47.789Z,2.25
2023-04-16T06:23:14.602Z,1.88
2023-04-16T06:25:41.694Z,1.98
2023-04-16T06:28:08.490Z,2.05
2023-04-16T06:30:35.417Z,2.90
2023-04-16T06:33:02.334Z,2.00
2023-04-16T06:35:29.170Z,2.05
2023-04-16T06:37:56.013Z,2.50
2023-04-16T06:40:22.886Z,2.30
2023-04-16T06:42:49.709Z,3.13
2023-04-16T06:45:16.564Z,2.67
2023-04-16T06:47:43.413Z,2.55
2023-04-16T06:50:10.499Z,2.13
2023-04-16T06:52:37.303Z,2.45
2023-04-16T06:55:04.254Z,3.97
2023-04-16T06:57:31.179Z,2.80
2023-04-16T06:59:58.051Z,3.33
2023-04-16T07:02:25.006Z,3.15
2023-04-16T07:04:52.585Z,3.50
2023-04-16T07:07:19.481Z,3.35
2023-04-16T07:09:46.292Z,1.88
2023-04-16T07:12:13.535Z,2.92
2023-04-16T07:14:40.420Z,2.55
2023-04-16T07:17:07.191Z,2.28
2023-04-16T07:19:34.067Z,2.70
2023-04-16T07:22:00.891Z,2.22
2023-04-16T07:24:27.744Z,2.88
2023-04-16T07:26:54.509Z,2.20
2023-04-16T07:29:21.659Z,3.20
2023-04-16T07:31:49.041Z,2.55
2023-04-16T07:34:15.913Z,3.05
2023-04-16T07:36:42.648Z,2.67
2023-04-16T07:39:11.196Z,3.78
2023-04-16T07:41:40.088Z,3.58
2023-04-16T07:44:07.010Z,3.92
2023-04-16T07:46:43.548Z,3.30
2023-04-16T07:49:13.502Z,3.22
2023-04-16T07:51:40.841Z,3.33
2023-04-16T07:54:07.662Z,3.25
2023-04-16T07:56:34.493Z,3.88
2023-04-16T07:59:14.358Z,2.65
2023-04-16T08:01:48.056Z,3.17
2023-04-16T08:04:17.432Z,2.55
2023-04-16T08:06:44.369Z,3.00
2023-04-16T08:09:11.651Z,3.33
2023-04-16T08:11:38.565Z,3.05
2023-04-16T08:14:05.403Z,2.78
2023-04-16T08:16:32.151Z,2.88
2023-04-16T08:19:01.197Z,5.75
2023-04-16T08:21:28.230Z,3.25
2023-04-16T08:23:55.023Z,3.10
2023-04-16T08:26:21.856Z,2.90
2023-04-16T08:28:48.666Z,3.53
2023-04-16T08:31:16.018Z,3.67
2023-04-16T08:33:43.527Z,3.22
2023-04-16T08:36:10.509Z,3.47
2023-04-16T08:38:37.314Z,3.53
2023-04-16T08:41:06.232Z,3.88
2023-04-16T08:43:34.124Z,2.80
2023-04-16T08:46:01.029Z,3.60
2023-04-16T08:48:32.719Z,3.00
2023-04-16T08:51:00.674Z,1.90
2023-04-16T08:53:36.120Z,2.90
2023-04-16T08:56:06.465Z,2.60
2023-04-16T08:58:34.868Z,2.80
2023-04-16T09:01:03.952Z,1.92
2023-04-16T09:03:36.344Z,2.28
2023-04-16T09:06:04.608Z,2.47
2023-04-16T09:08:32.378Z,2.28
2023-04-16T09:10:59.711Z,3.03
2023-04-16T09:13:26.866Z,2.20
2023-04-16T09:15:54.211Z,2.28
2023-04-16T09:18:21.498Z,2.58
2023-04-16T09:20:49.304Z,1.77
2023-04-16T09:23:16.200Z,2.28
2023-04-16T09:25:42.981Z,3.13
2023-04-16T09:28:12.822Z,2.70
2023-04-16T09:30:39.627Z,2.78
2023-04-16T09:33:14.058Z,2.25
2023-04-16T09:35:50.937Z,1.98
2023-04-16T09:38:18.124Z,2.53
2023-04-16T09:40:45.000Z,1.90
2023-04-16T09:43:12.417Z,2.50
2023-04-16T09:45:52.404Z,3.00
2023-04-16T09:48:29.034Z,2.35
2023-04-16T09:50:55.874Z,1.63
2023-04-16T09:53:26.757Z,2.25
2023-04-16T09:55:56.370Z,1.67
2023-04-16T09:58:24.680Z,1.30
2023-04-16T10:01:05.614Z,1.27
2023-04-16T10:06:16.311Z,1.92
2023-04-16T10:08:43.755Z,1.42
2023-04-16T10:11:11.148Z,1.48
2023-04-16T10:13:37.909Z,2.08
2023-04-16T10:16:05.017Z,1.08
2023-04-16T10:18:31.915Z,1.35
2023-04-16T10:20:58.982Z,0.95
2023-04-16T10:23:26.721Z,1.27
2023-04-16T10:25:56.416Z,1.10
2023-04-16T10:28:24.895Z,1.10
2023-04-16T10:30:55.322Z,1.75
2023-04-16T10:33:33.618Z,2.35
2023-04-16T10:36:10.930Z,1.17
2023-04-16T10:38:41.662Z,1.30
2023-04-16T10:41:09.702Z,1.05
2023-04-16T10:43:59.385Z,0.90
2023-04-16T10:46:27.134Z,1.00
2023-04-16T10:48:54.603Z,1.35
2023-04-16T10:51:26.039Z,1.35
2023-04-16T10:53:54.155Z,1.77
2023-04-16T10:56:24.972Z,1.10
2023-04-16T10:58:53.346Z,1.30
2023-04-16T11:01:26.638Z,1.40
2023-04-16T11:03:53.661Z,1.23
2023-04-16T11:06:27.106Z,1.65
2023-04-16T11:08:55.427Z,1.27
2023-04-16T11:11:22.798Z,1.63
2023-04-16T11:13:49.560Z,1.15
2023-04-16T11:16:16.911Z,1.98
2023-04-16T11:18:51.349Z,1.30
2023-04-16T11:21:19.678Z,1.70
2023-04-16T11:23:47.681Z,1.45
2023-04-16T11:26:30.902Z,1.73
2023-04-16T11:28:57.845Z,1.17
2023-04-16T11:31:24.914Z,1.50
2023-04-16T11:33:51.835Z,1.45
2023-04-16T11:36:18.590Z,2.28
2023-04-16T11:38:45.943Z,3.22
2023-04-16T11:41:19.135Z,1.70
2023-04-16T11:43:46.192Z,1.85
2023-04-16T11:46:24.587Z,2.05
2023-04-16T11:48:55.545Z,1.67
2023-04-16T11:51:23.726Z,1.20
2023-04-16T11:53:52.928Z,1.30
2023-04-16T11:56:26.851Z,2.25
2023-04-16T11:59:06.636Z,1.70
2023-04-16T12:01:34.670Z,1.35
2023-04-16T12:04:02.780Z,1.85
2023-04-16T12:06:29.952Z,1.48
2023-04-16T12:08:56.838Z,1.42
2023-04-16T12:11:38.235Z,1.48
2023-04-16T12:14:11.705Z,1.30
2023-04-16T12:16:38.480Z,1.27
2023-04-16T12:19:05.837Z,1.15
2023-04-16T12:21:42.947Z,1.17
2023-04-16T12:24:10.656Z,1.55
2023-04-16T12:26:41.467Z,1.20
2023-04-16T12:31:38.423Z,1.40
2023-04-16T12:34:05.392Z,1.33
2023-04-16T12:36:32.256Z,1.38
2023-04-16T12:38:59.080Z,1.23
2023-04-16T12:41:25.982Z,1.55
2023-04-16T12:43:53.102Z,1.20
2023-04-16T12:46:19.962Z,1.42
2023-04-16T12:48:47.106Z,2.30
2023-04-16T12:51:13.971Z,1.60
2023-04-16T12:53:40.809Z,1.92
2023-04-16T12:56:07.671Z,1.42
2023-04-16T12:58:34.688Z,1.30
2023-04-16T13:01:01.485Z,2.63
2023-04-16T13:03:28.299Z,1.77
2023-04-16T13:05:56.942Z,1.95
2023-04-16T13:08:23.819Z,1.95
2023-04-16T13:10:50.774Z,1.55
2023-04-16T13:13:17.625Z,1.20
2023-04-16T13:15:44.462Z,1.27
2023-04-16T13:18:11.279Z,1.42
2023-04-16T13:20:38.231Z,1.60
2023-04-16T13:23:05.356Z,1.35
2023-04-16T13:25:32.203Z,1.20
2023-04-16T13:27:58.984Z,1.05
2023-04-16T13:30:25.992Z,1.05
2023-04-16T13:32:52.816Z,1.13
2023-04-16T13:35:19.627Z,0.95
2023-04-16T13:37:46.452Z,0.80
2023-04-16T13:40:13.315Z,1.20
2023-04-16T13:42:40.112Z,0.98
2023-04-16T13:45:07.234Z,1.45
2023-04-16T13:47:34.592Z,1.48
2023-04-16T13:50:01.418Z,1.60
2023-04-16T13:52:28.229Z,1.73
2023-04-16T13:54:55.188Z,1.42
2023-04-16T13:57:22.188Z,1.55
2023-04-16T13:59:49.047Z,1.42
2023-04-16T14:02:15.962Z,1.00
2023-04-16T14:04:42.849Z,0.90
2023-04-16T14:07:09.645Z,1.83
2023-04-16T14:09:36.735Z,1.00
2023-04-16T14:12:03.729Z,1.23
2023-04-16T14:14:30.656Z,0.90
2023-04-16T14:17:00.414Z,1.17
2023-04-16T14:19:27.163Z,1.98
2023-04-16T14:21:54.472Z,1.02
2023-04-16T14:24:21.243Z,1.13
2023-04-16T14:26:48.006Z,1.40
2023-04-16T14:29:14.774Z,1.27
2023-04-16T14:31:41.795Z,1.58
2023-04-16T14:34:08.629Z,1.70
2023-04-16T14:36:36.032Z,1.65
2023-04-16T14:39:02.812Z,1.80
2023-04-16T14:41:30.421Z,1.60
2023-04-16T14:43:57.311Z,1.67
2023-04-16T14:46:25.176Z,1.27
2023-04-16T14:48:52.030Z,1.73
2023-04-16T14:51:18.869Z,1.73
2023-04-16T14:53:45.769Z,1.38
2023-04-16T14:56:13.710Z,1.77
2023-04-16T14:58:42.553Z,1.90
2023-04-16T15:01:09.570Z,1.70
2023-04-16T15:03:36.825Z,2.00
2023-04-16T15:06:03.792Z,2.28
2023-04-16T15:08:31.020Z,2.20
2023-04-16T15:10:57.810Z,1.52
2023-04-16T15:13:24.691Z,1.95
2023-04-16T15:15:51.549Z,1.40
2023-04-16T15:18:18.477Z,2.38
2023-04-16T15:20:45.387Z,2.63
2023-04-16T15:23:12.154Z,2.00
2023-04-16T15:25:39.055Z,1.67
2023-04-16T15:28:06.699Z,1.92
2023-04-16T15:30:33.606Z,1.70
2023-04-16T15:33:00.754Z,1.88
2023-04-16T15:35:27.674Z,1.75
2023-04-16T15:37:55.436Z,2.35
2023-04-16T15:40:22.580Z,8.40
2023-04-16T15:42:49.512Z,2.13
2023-04-16T15:45:16.392Z,1.50
2023-04-16T15:47:45.469Z,1.63
2023-04-16T15:50:12.412Z,1.80
2023-04-16T15:52:39.566Z,2.42
2023-04-16T15:55:06.547Z,1.88
2023-04-16T15:57:33.368Z,3.90
2023-04-16T16:00:07.101Z,2.08
2023-04-16T16:02:34.636Z,1.70
2023-04-16T16:05:01.791Z,1.63
2023-04-16T16:07:28.722Z,2.45
2023-04-16T16:09:56.468Z,2.35
2023-04-16T16:12:23.630Z,2.83
2023-04-16T16:14:50.456Z,2.33
2023-04-16T16:17:17.810Z,2.33
2023-04-16T16:19:46.310Z,3.50
2023-04-16T16:22:13.334Z,2.00
2023-04-16T16:24:40.126Z,2.95
2023-04-16T16:27:07.247Z,2.45
2023-04-16T16:29:34.126Z,2.92
2023-04-16T16:32:01.223Z,2.35
2023-04-16T16:34:28.418Z,2.80
2023-04-16T16:36:55.219Z,2.05
2023-04-16T16:39:25.446Z,1.88
2023-04-16T16:41:55.297Z,2.15
2023-04-16T16:44:22.295Z,2.20
2023-04-16T16:46:49.280Z,1.77
2023-04-16T16:49:16.660Z,2.00
2023-04-16T16:51:47.124Z,4.88
2023-04-16T16:54:13.938Z,2.15
2023-04-16T16:56:40.857Z,2.08
2023-04-16T16:59:08.681Z,2.00
2023-04-16T17:01:35.835Z,2.67
2023-04-16T17:04:02.932Z,2.28
2023-04-16T17:06:29.816Z,3.20
2023-04-16T17:08:56.695Z,1.85
2023-04-16T17:11:23.610Z,2.05
2023-04-16T17:13:50.694Z,2.80
2023-04-16T17:16:17.887Z,2.78
2023-04-16T17:18:44.838Z,4.20
2023-04-16T17:21:11.677Z,4.35
2023-04-16T17:23:40.604Z,5.35
2023-04-16T17:26:07.974Z,4.13
2023-04-16T17:28:34.893Z,4.18
2023-04-16T17:31:02.848Z,4.55
2023-04-16T17:33:29.635Z,3.72
2023-04-16T17:35:56.476Z,3.50
2023-04-16T17:38:23.355Z,2.38
2023-04-16T17:40:50.208Z,1.77
2023-04-16T17:43:17.044Z,2.50
2023-04-16T17:45:44.065Z,4.15
2023-04-16T17:48:11.162Z,1.95
2023-04-16T17:50:39.528Z,1.90
2023-04-16T17:53:07.859Z,1.92
2023-04-16T17:55:34.903Z,2.13
2023-04-16T17:58:03.776Z,2.28
2023-04-16T18:00:31.047Z,2.35
2023-04-16T18:02:59.821Z,1.88
2023-04-16T18:05:27.547Z,2.03
2023-04-16T18:07:55.636Z,3.35
2023-04-16T18:10:22.523Z,2.20
2023-04-16T18:12:49.354Z,2.33
2023-04-16T18:15:16.836Z,2.10
2023-04-16T18:17:43.653Z,2.30
2023-04-16T18:20:11.802Z,2.47
2023-04-16T18:22:38.613Z,2.10
2023-04-16T18:25:06.869Z,2.00
2023-04-16T18:27:33.666Z,1.63
2023-04-16T18:30:00.374Z,1.33
2023-04-16T18:32:30.858Z,1.20
2023-04-16T18:34:58.181Z,1.23
2023-04-16T18:37:25.066Z,1.30
2023-04-16T18:39:51.898Z,1.33
2023-04-16T18:42:18.708Z,1.40
2023-04-16T18:44:51.456Z,2.03
2023-04-16T18:47:18.313Z,1.40
2023-04-16T18:49:45.163Z,1.75
2023-04-16T18:52:12.268Z,1.80
2023-04-16T18:54:39.140Z,2.10
2023-04-16T18:57:05.969Z,2.53
2023-04-16T18:59:32.920Z,2.95
2023-04-16T19:01:59.873Z,3.00
2023-04-16T19:04:26.930Z,2.88
2023-04-16T19:06:53.786Z,3.00
2023-04-16T19:09:20.839Z,3.13
2023-04-16T19:11:49.407Z,4.05
2023-04-16T19:14:16.269Z,4.20
2023-04-16T19:16:43.130Z,4.18
2023-04-16T19:19:10.284Z,3.65
2023-04-16T19:21:37.301Z,3.53
2023-04-16T19:24:04.200Z,4.00
2023-04-16T19:26:31.154Z,2.72
2023-04-16T19:28:57.924Z,3.05
2023-04-16T19:31:26.327Z,2.95
2023-04-16T19:33:53.201Z,2.85
2023-04-16T19:36:20.047Z,2.80
2023-04-16T19:38:46.922Z,2.60
2023-04-16T19:41:13.816Z,2.97
2023-04-16T19:43:40.939Z,2.70
2023-04-16T19:46:07.873Z,3.20
2023-04-16T19:48:34.738Z,2.88
2023-04-16T19:51:02.294Z,3.08
2023-04-16T19:53:29.095Z,2.90
2023-04-16T19:55:55.998Z,2.67
2023-04-16T19:58:22.900Z,2.78
2023-04-16T20:00:49.834Z,2.83
2023-04-16T20:03:16.713Z,2.67
2023-04-16T20:05:43.511Z,2.50
2023-04-16T20:08:10.290Z,4.32
2023-04-16T20:10:37.048Z,4.78
2023-04-16T20:13:04.063Z,3.97
2023-04-16T20:15:30.845Z,3.55
2023-04-16T20:17:57.729Z,3.92
2023-04-16T20:20:24.600Z,3.22
2023-04-16T20:22:51.358Z,3.97
2023-04-16T20:25:19.499Z,2.63
2023-04-16T20:27:46.492Z,4.05
2023-04-16T20:30:13.778Z,4.90
2023-04-16T20:32:40.606Z,4.88
2023-04-16T20:35:10.831Z,5.60
2023-04-16T20:37:42.290Z,5.13
2023-04-16T20:40:09.706Z,3.38
2023-04-16T20:42:36.518Z,2.60
2023-04-16T20:45:03.341Z,3.58
2023-04-16T20:47:30.137Z,3.30
2023-04-16T20:49:58.350Z,4.65
2023-04-16T20:52:25.228Z,4.45
2023-04-16T20:54:52.467Z,3.97
2023-04-16T20:57:19.322Z,3.70
2023-04-16T20:59:46.313Z,3.78
2023-04-16T21:02:13.318Z,3.28
2023-04-16T21:04:40.645Z,3.33
2023-04-16T21:07:07.812Z,2.92
2023-04-16T21:09:34.558Z,3.40
2023-04-16T21:12:01.769Z,3.17
2023-04-16T21:14:28.733Z,3.53
2023-04-16T21:16:55.696Z,3.08
2023-04-16T21:19:22.690Z,3.22
2023-04-16T21:21:49.596Z,3.60
2023-04-16T21:24:16.431Z,2.97
2023-04-16T21:26:43.194Z,2.63
2023-04-16T21:29:10.198Z,2.80
2023-04-16T21:31:37.191Z,2.85
2023-04-16T21:34:04.111Z,2.25
2023-04-16T21:36:33.149Z,2.20
2023-04-16T21:38:59.953Z,1.67
2023-04-16T21:41:26.929Z,2.42
2023-04-16T21:43:53.814Z,1.70
2023-04-16T21:46:21.163Z,1.60
2023-04-16T21:48:48.646Z,2.55
2023-04-16T21:51:15.914Z,3.13
2023-04-16T21:53:42.723Z,3.90
2023-04-16T21:56:09.651Z,3.95
2023-04-16T21:58:36.488Z,3.50
2023-04-16T22:01:10.358Z,3.28
2023-04-16T22:03:41.225Z,3.72
2023-04-16T22:06:08.867Z,3.33
2023-04-16T22:08:35.752Z,3.15
2023-04-16T22:11:02.985Z,3.30
2023-04-16T22:13:30.408Z,3.22
2023-04-16T22:15:57.988Z,3.15
2023-04-16T22:18:25.813Z,3.00
2023-04-16T22:20:55.055Z,2.70
2023-04-16T22:23:23.238Z,2.45
2023-04-16T22:25:50.188Z,2.90
2023-04-16T22:28:16.981Z,2.00
2023-04-16T22:30:43.784Z,2.90
2023-04-16T22:33:10.760Z,2.90
2023-04-16T22:35:37.586Z,3.10
2023-04-16T22:38:04.432Z,3.20
2023-04-16T22:40:32.149Z,3.38
2023-04-16T22:42:59.070Z,2.90
2023-04-16T22:45:26.226Z,3.33
2023-04-16T22:47:53.056Z,3.28
2023-04-16T22:50:19.961Z,3.35
2023-04-16T22:52:46.773Z,3.45
2023-04-16T22:55:13.551Z,2.85
2023-04-16T22:57:40.301Z,3.40
2023-04-16T23:00:18.069Z,3.40
2023-04-16T23:02:45.388Z,2.90
2023-04-16T23:05:12.328Z,3.60
2023-04-16T23:07:39.186Z,3.50
2023-04-16T23:10:06.432Z,4.00
2023-04-16T23:12:33.227Z,3.28
2023-04-16T23:15:00.917Z,3.13
2023-04-16T23:17:28.181Z,3.70
2023-04-16T23:19:55.081Z,4.40
2023-04-16T23:22:21.951Z,3.53
2023-04-16T23:24:48.768Z,3.83
2023-04-16T23:27:15.769Z,3.42
2023-04-16T23:29:42.547Z,3.53
2023-04-16T23:32:09.384Z,3.65
2023-04-16T23:34:36.357Z,3.35
2023-04-16T23:37:03.214Z,3.80
2023-04-16T23:39:29.981Z,3.47
2023-04-16T23:41:57.739Z,3.67
2023-04-16T23:44:24.667Z,3.67
2023-04-16T23:46:51.521Z,3.78
2023-04-16T23:49:18.397Z,4.00
2023-04-16T23:51:45.240Z,3.72
2023-04-16T23:54:12.107Z,4.38
2023-04-16T23:56:38.891Z,4.70
2023-04-16T23:59:05.715Z,4.30
